sensor_id;sensor_type;location;lat;lon;timestamp;pressure;altitude;pressure_sealevel;temperature;humidity
63535;BME280;55128;50.230;18.944;2024-02-26T00:02:59;97455.47;;;3.91;78.14
63535;BME280;55128;50.230;18.944;2024-02-26T00:07:59;97451.13;;;3.89;77.44
63535;BME280;55128;50.230;18.944;2024-02-26T00:13:00;97456.78;;;3.79;77.70
63535;BME280;55128;50.230;18.944;2024-02-26T00:18:01;97464.13;;;3.69;77.02
63535;BME280;55128;50.230;18.944;2024-02-26T00:23:01;97461.69;;;3.64;77.32
63535;BME280;55128;50.230;18.944;2024-02-26T00:28:01;97456.09;;;3.50;77.66
63535;BME280;55128;50.230;18.944;2024-02-26T00:33:02;97460.59;;;3.46;78.14
63535;BME280;55128;50.230;18.944;2024-02-26T00:38:02;97452.97;;;3.40;77.63
63535;BME280;55128;50.230;18.944;2024-02-26T00:43:03;97464.94;;;3.22;78.92
63535;BME280;55128;50.230;18.944;2024-02-26T00:48:04;97465.59;;;3.29;79.11
63535;BME280;55128;50.230;18.944;2024-02-26T00:53:05;97467.25;;;3.31;78.88
63535;BME280;55128;50.230;18.944;2024-02-26T00:58:06;97469.59;;;3.39;77.73
63535;BME280;55128;50.230;18.944;2024-02-26T01:03:06;97462.66;;;3.38;78.21
63535;BME280;55128;50.230;18.944;2024-02-26T01:08:06;97466.41;;;3.31;79.63
63535;BME280;55128;50.230;18.944;2024-02-26T01:13:07;97459.97;;;3.40;78.73
63535;BME280;55128;50.230;18.944;2024-02-26T01:18:08;97462.13;;;3.28;79.55
63535;BME280;55128;50.230;18.944;2024-02-26T01:23:08;97458.94;;;3.19;81.01
63535;BME280;55128;50.230;18.944;2024-02-26T01:28:08;97455.91;;;3.55;80.63
63535;BME280;55128;50.230;18.944;2024-02-26T01:33:09;97448.78;;;3.35;81.13
63535;BME280;55128;50.230;18.944;2024-02-26T01:38:09;97453.97;;;3.36;79.95
63535;BME280;55128;50.230;18.944;2024-02-26T01:43:09;97446.91;;;3.38;80.29
63535;BME280;55128;50.230;18.944;2024-02-26T01:48:10;97445.91;;;3.17;80.38
63535;BME280;55128;50.230;18.944;2024-02-26T01:53:11;97440.41;;;3.25;80.92
63535;BME280;55128;50.230;18.944;2024-02-26T01:58:13;97447.91;;;3.10;79.96
63535;BME280;55128;50.230;18.944;2024-02-26T02:03:14;97446.06;;;3.13;80.33
63535;BME280;55128;50.230;18.944;2024-02-26T02:08:14;97448.03;;;3.06;80.86
63535;BME280;55128;50.230;18.944;2024-02-26T02:13:15;97440.28;;;3.03;80.93
63535;BME280;55128;50.230;18.944;2024-02-26T02:18:15;97441.59;;;2.91;81.00
63535;BME280;55128;50.230;18.944;2024-02-26T02:23:16;97447.81;;;2.87;80.05
63535;BME280;55128;50.230;18.944;2024-02-26T02:28:16;97443.59;;;2.83;80.74
63535;BME280;55128;50.230;18.944;2024-02-26T02:33:17;97444.53;;;2.82;81.18
63535;BME280;55128;50.230;18.944;2024-02-26T02:38:17;97445.63;;;2.75;80.57
63535;BME280;55128;50.230;18.944;2024-02-26T02:43:18;97435.25;;;2.71;81.84
63535;BME280;55128;50.230;18.944;2024-02-26T02:48:18;97440.06;;;2.57;80.76
63535;BME280;55128;50.230;18.944;2024-02-26T02:53:19;97439.91;;;2.88;82.11
63535;BME280;55128;50.230;18.944;2024-02-26T02:58:19;97432.84;;;2.65;83.11
63535;BME280;55128;50.230;18.944;2024-02-26T03:03:19;97436.97;;;2.72;82.60
63535;BME280;55128;50.230;18.944;2024-02-26T03:08:20;97428.09;;;2.77;81.99
63535;BME280;55128;50.230;18.944;2024-02-26T03:13:20;97426.28;;;2.79;82.30
63535;BME280;55128;50.230;18.944;2024-02-26T03:18:21;97423.81;;;2.74;81.48
63535;BME280;55128;50.230;18.944;2024-02-26T03:23:21;97426.91;;;2.60;81.00
63535;BME280;55128;50.230;18.944;2024-02-26T03:28:22;97424.88;;;2.42;81.22
63535;BME280;55128;50.230;18.944;2024-02-26T03:33:22;97425.97;;;2.34;81.69
63535;BME280;55128;50.230;18.944;2024-02-26T03:38:23;97423.19;;;2.41;81.42
63535;BME280;55128;50.230;18.944;2024-02-26T03:43:23;97420.00;;;2.31;80.64
63535;BME280;55128;50.230;18.944;2024-02-26T03:48:24;97410.53;;;2.27;81.08
63535;BME280;55128;50.230;18.944;2024-02-26T03:53:24;97406.09;;;2.29;81.76
63535;BME280;55128;50.230;18.944;2024-02-26T03:58:24;97401.09;;;2.21;82.39
63535;BME280;55128;50.230;18.944;2024-02-26T04:03:25;97401.91;;;2.23;81.28
63535;BME280;55128;50.230;18.944;2024-02-26T04:08:26;97392.69;;;2.11;81.31
63535;BME280;55128;50.230;18.944;2024-02-26T04:13:26;97391.69;;;2.16;81.48
63535;BME280;55128;50.230;18.944;2024-02-26T04:18:27;97392.88;;;2.07;81.89
63535;BME280;55128;50.230;18.944;2024-02-26T04:23:27;97383.28;;;2.06;82.05
63535;BME280;55128;50.230;18.944;2024-02-26T04:28:29;97382.22;;;2.11;82.12
63535;BME280;55128;50.230;18.944;2024-02-26T04:33:29;97382.91;;;2.18;83.41
63535;BME280;55128;50.230;18.944;2024-02-26T04:38:30;97384.28;;;2.28;83.30
63535;BME280;55128;50.230;18.944;2024-02-26T04:43:30;97376.31;;;2.33;81.82
63535;BME280;55128;50.230;18.944;2024-02-26T04:48:30;97379.31;;;2.21;81.69
63535;BME280;55128;50.230;18.944;2024-02-26T04:53:31;97372.31;;;2.21;81.82
63535;BME280;55128;50.230;18.944;2024-02-26T04:58:31;97374.13;;;2.19;82.18
63535;BME280;55128;50.230;18.944;2024-02-26T05:03:32;97369.00;;;2.16;81.77
63535;BME280;55128;50.230;18.944;2024-02-26T05:08:32;97374.38;;;2.11;81.37
63535;BME280;55128;50.230;18.944;2024-02-26T05:13:33;97377.50;;;1.96;81.50
63535;BME280;55128;50.230;18.944;2024-02-26T05:18:34;97377.41;;;1.99;82.06
63535;BME280;55128;50.230;18.944;2024-02-26T05:23:34;97387.75;;;2.02;81.84
63535;BME280;55128;50.230;18.944;2024-02-26T05:28:35;97381.88;;;1.96;81.52
63535;BME280;55128;50.230;18.944;2024-02-26T05:33:36;97389.91;;;1.89;80.70
63535;BME280;55128;50.230;18.944;2024-02-26T05:38:37;97387.25;;;1.91;80.74
63535;BME280;55128;50.230;18.944;2024-02-26T05:43:37;97391.59;;;1.92;80.99
63535;BME280;55128;50.230;18.944;2024-02-26T05:48:38;97398.47;;;1.94;81.08
63535;BME280;55128;50.230;18.944;2024-02-26T05:53:38;97404.13;;;2.09;80.80
63535;BME280;55128;50.230;18.944;2024-02-26T05:58:38;97402.78;;;2.24;81.72
63535;BME280;55128;50.230;18.944;2024-02-26T06:03:39;97402.09;;;2.44;81.13
63535;BME280;55128;50.230;18.944;2024-02-26T06:08:39;97413.91;;;3.33;80.81
63535;BME280;55128;50.230;18.944;2024-02-26T06:13:40;97404.41;;;4.42;78.77
63535;BME280;55128;50.230;18.944;2024-02-26T06:18:40;97409.97;;;5.76;76.81
63535;BME280;55128;50.230;18.944;2024-02-26T06:23:40;97422.41;;;6.30;73.26
63535;BME280;55128;50.230;18.944;2024-02-26T06:28:41;97425.78;;;8.03;69.58
63535;BME280;55128;50.230;18.944;2024-02-26T06:33:41;97427.38;;;10.43;67.17
63535;BME280;55128;50.230;18.944;2024-02-26T06:38:42;97431.19;;;10.39;58.92
63535;BME280;55128;50.230;18.944;2024-02-26T06:43:42;97425.81;;;10.68;59.19
63535;BME280;55128;50.230;18.944;2024-02-26T06:48:42;97433.41;;;11.00;61.86
63535;BME280;55128;50.230;18.944;2024-02-26T06:53:43;97434.78;;;13.41;59.30
63535;BME280;55128;50.230;18.944;2024-02-26T06:58:43;97442.25;;;13.83;56.46
63535;BME280;55128;50.230;18.944;2024-02-26T07:03:43;97431.41;;;13.51;54.12
63535;BME280;55128;50.230;18.944;2024-02-26T07:08:44;97447.31;;;15.30;49.74
63535;BME280;55128;50.230;18.944;2024-02-26T07:13:48;97444.06;;;14.05;47.84
63535;BME280;55128;50.230;18.944;2024-02-26T07:18:50;97451.00;;;13.85;48.92
63535;BME280;55128;50.230;18.944;2024-02-26T07:23:50;97455.28;;;14.76;47.66
63535;BME280;55128;50.230;18.944;2024-02-26T07:28:50;97447.56;;;14.51;48.34
63535;BME280;55128;50.230;18.944;2024-02-26T07:33:51;97444.69;;;15.19;47.11
63535;BME280;55128;50.230;18.944;2024-02-26T07:38:51;97443.19;;;15.26;45.54
63535;BME280;55128;50.230;18.944;2024-02-26T07:43:54;97443.19;;;17.67;43.64
63535;BME280;55128;50.230;18.944;2024-02-26T07:48:54;97446.16;;;18.87;38.89
63535;BME280;55128;50.230;18.944;2024-02-26T07:53:55;97448.06;;;18.94;39.05
63535;BME280;55128;50.230;18.944;2024-02-26T07:58:55;97456.28;;;20.94;39.61
63535;BME280;55128;50.230;18.944;2024-02-26T08:03:56;97452.06;;;21.00;35.10
63535;BME280;55128;50.230;18.944;2024-02-26T08:08:56;97452.28;;;19.95;35.31
63535;BME280;55128;50.230;18.944;2024-02-26T08:13:56;97456.13;;;18.39;37.77
63535;BME280;55128;50.230;18.944;2024-02-26T08:18:57;97455.56;;;17.21;41.65
63535;BME280;55128;50.230;18.944;2024-02-26T08:23:58;97456.13;;;17.25;41.20
63535;BME280;55128;50.230;18.944;2024-02-26T08:28:58;97464.50;;;16.71;41.82
63535;BME280;55128;50.230;18.944;2024-02-26T08:33:58;97453.50;;;15.93;43.49
63535;BME280;55128;50.230;18.944;2024-02-26T08:39:00;97454.47;;;15.92;43.20
63535;BME280;55128;50.230;18.944;2024-02-26T08:44:01;97451.22;;;15.68;45.35
63535;BME280;55128;50.230;18.944;2024-02-26T08:49:01;97452.31;;;18.41;40.68
63535;BME280;55128;50.230;18.944;2024-02-26T08:54:01;97449.28;;;21.67;34.78
63535;BME280;55128;50.230;18.944;2024-02-26T08:59:02;97456.88;;;21.71;33.28
63535;BME280;55128;50.230;18.944;2024-02-26T09:04:03;97460.84;;;22.17;32.17
63535;BME280;55128;50.230;18.944;2024-02-26T09:09:04;97462.72;;;23.58;31.42
63535;BME280;55128;50.230;18.944;2024-02-26T09:14:04;97466.16;;;24.72;27.96
63535;BME280;55128;50.230;18.944;2024-02-26T09:19:05;97451.34;;;22.45;30.25
63535;BME280;55128;50.230;18.944;2024-02-26T09:24:05;97448.16;;;20.09;33.18
63535;BME280;55128;50.230;18.944;2024-02-26T09:29:05;97453.41;;;19.48;34.19
63535;BME280;55128;50.230;18.944;2024-02-26T09:34:06;97451.34;;;18.33;36.49
63535;BME280;55128;50.230;18.944;2024-02-26T09:39:06;97453.81;;;18.16;36.83
63535;BME280;55128;50.230;18.944;2024-02-26T09:44:15;97456.50;;;18.16;37.36
63535;BME280;55128;50.230;18.944;2024-02-26T09:49:19;97452.94;;;17.78;37.97
63535;BME280;55128;50.230;18.944;2024-02-26T09:54:22;97449.47;;;17.39;38.93
63535;BME280;55128;50.230;18.944;2024-02-26T09:59:23;97455.16;;;18.02;38.18
63535;BME280;55128;50.230;18.944;2024-02-26T10:04:24;97451.03;;;18.63;37.15
63535;BME280;55128;50.230;18.944;2024-02-26T10:09:25;97450.38;;;17.77;38.15
63535;BME280;55128;50.230;18.944;2024-02-26T10:14:26;97457.50;;;17.39;39.66
63535;BME280;55128;50.230;18.944;2024-02-26T10:19:30;97441.97;;;17.13;40.69
63535;BME280;55128;50.230;18.944;2024-02-26T10:24:30;97449.03;;;17.43;39.49
63535;BME280;55128;50.230;18.944;2024-02-26T10:29:31;97439.13;;;17.63;40.32
63535;BME280;55128;50.230;18.944;2024-02-26T10:34:31;97443.44;;;17.94;39.40
63535;BME280;55128;50.230;18.944;2024-02-26T10:39:32;97440.81;;;17.55;39.94
63535;BME280;55128;50.230;18.944;2024-02-26T10:44:32;97439.44;;;17.41;40.19
63535;BME280;55128;50.230;18.944;2024-02-26T10:49:35;97427.72;;;17.32;40.88
63535;BME280;55128;50.230;18.944;2024-02-26T10:54:37;97431.69;;;17.18;41.18
63535;BME280;55128;50.230;18.944;2024-02-26T10:59:42;97423.34;;;17.02;41.97
63535;BME280;55128;50.230;18.944;2024-02-26T11:04:44;97432.66;;;16.98;42.07
63535;BME280;55128;50.230;18.944;2024-02-26T11:09:45;97425.50;;;17.08;42.14
63535;BME280;55128;50.230;18.944;2024-02-26T11:14:52;97427.34;;;16.57;43.09
63535;BME280;55128;50.230;18.944;2024-02-26T11:19:59;97426.69;;;16.75;43.37
63535;BME280;55128;50.230;18.944;2024-02-26T11:25:00;97422.91;;;16.87;43.13
63535;BME280;55128;50.230;18.944;2024-02-26T11:30:02;97421.66;;;16.91;43.53
63535;BME280;55128;50.230;18.944;2024-02-26T11:35:05;97415.16;;;17.03;43.62
63535;BME280;55128;50.230;18.944;2024-02-26T11:40:14;97428.44;;;17.05;42.82
63535;BME280;55128;50.230;18.944;2024-02-26T11:50:40;97414.59;;;16.90;44.09
63535;BME280;55128;50.230;18.944;2024-02-26T11:55:41;97414.81;;;16.58;44.75
63535;BME280;55128;50.230;18.944;2024-02-26T12:00:42;97410.69;;;16.44;44.92
63535;BME280;55128;50.230;18.944;2024-02-26T12:05:43;97403.81;;;16.61;45.17
63535;BME280;55128;50.230;18.944;2024-02-26T12:10:43;97408.81;;;16.85;44.34
63535;BME280;55128;50.230;18.944;2024-02-26T12:15:57;97420.94;;;16.29;45.07
63535;BME280;55128;50.230;18.944;2024-02-26T12:20:59;97416.66;;;16.07;46.22
63535;BME280;55128;50.230;18.944;2024-02-26T12:26:01;97406.13;;;15.84;46.82
63535;BME280;55128;50.230;18.944;2024-02-26T12:31:02;97413.75;;;15.68;47.20
63535;BME280;55128;50.230;18.944;2024-02-26T12:36:03;97413.25;;;15.53;47.68
63535;BME280;55128;50.230;18.944;2024-02-26T12:41:03;97410.13;;;15.48;48.43
63535;BME280;55128;50.230;18.944;2024-02-26T12:46:04;97417.50;;;15.34;49.02
63535;BME280;55128;50.230;18.944;2024-02-26T12:51:05;97415.09;;;15.52;48.54
63535;BME280;55128;50.230;18.944;2024-02-26T12:56:07;97417.31;;;15.47;49.56
63535;BME280;55128;50.230;18.944;2024-02-26T13:01:14;97413.19;;;15.64;48.41
63535;BME280;55128;50.230;18.944;2024-02-26T13:06:15;97414.03;;;15.65;48.58
63535;BME280;55128;50.230;18.944;2024-02-26T13:11:16;97415.84;;;15.64;48.26
63535;BME280;55128;50.230;18.944;2024-02-26T13:16:16;97410.88;;;15.60;48.75
63535;BME280;55128;50.230;18.944;2024-02-26T13:21:18;97411.31;;;15.34;48.79
63535;BME280;55128;50.230;18.944;2024-02-26T13:26:22;97415.34;;;15.28;49.16
63535;BME280;55128;50.230;18.944;2024-02-26T13:31:23;97410.78;;;15.40;48.91
63535;BME280;55128;50.230;18.944;2024-02-26T13:36:24;97413.34;;;15.21;49.20
63535;BME280;55128;50.230;18.944;2024-02-26T13:41:25;97412.75;;;15.38;49.04
63535;BME280;55128;50.230;18.944;2024-02-26T13:46:26;97411.31;;;15.34;49.78
63535;BME280;55128;50.230;18.944;2024-02-26T13:51:27;97413.16;;;15.33;49.71
63535;BME280;55128;50.230;18.944;2024-02-26T13:56:27;97405.97;;;15.34;49.59
63535;BME280;55128;50.230;18.944;2024-02-26T14:01:27;97405.38;;;15.30;49.91
63535;BME280;55128;50.230;18.944;2024-02-26T14:06:28;97409.34;;;15.36;49.94
63535;BME280;55128;50.230;18.944;2024-02-26T14:11:29;97417.75;;;15.10;50.66
63535;BME280;55128;50.230;18.944;2024-02-26T14:16:29;97413.16;;;15.01;51.57
63535;BME280;55128;50.230;18.944;2024-02-26T14:21:30;97412.16;;;15.13;51.38
63535;BME280;55128;50.230;18.944;2024-02-26T14:26:30;97410.38;;;15.03;52.07
63535;BME280;55128;50.230;18.944;2024-02-26T14:31:30;97414.09;;;15.11;51.87
63535;BME280;55128;50.230;18.944;2024-02-26T14:36:31;97411.03;;;15.16;51.95
63535;BME280;55128;50.230;18.944;2024-02-26T14:41:31;97413.75;;;15.05;52.72
63535;BME280;55128;50.230;18.944;2024-02-26T14:46:32;97416.78;;;15.11;52.57
63535;BME280;55128;50.230;18.944;2024-02-26T14:51:32;97419.94;;;15.05;52.88
63535;BME280;55128;50.230;18.944;2024-02-26T14:56:33;97413.63;;;15.06;53.13
63535;BME280;55128;50.230;18.944;2024-02-26T15:01:33;97414.28;;;14.99;53.54
63535;BME280;55128;50.230;18.944;2024-02-26T15:06:34;97418.06;;;14.96;53.71
63535;BME280;55128;50.230;18.944;2024-02-26T15:11:39;97410.19;;;14.94;54.05
63535;BME280;55128;50.230;18.944;2024-02-26T15:16:39;97407.06;;;14.78;55.15
63535;BME280;55128;50.230;18.944;2024-02-26T15:21:47;97414.09;;;14.90;54.66
63535;BME280;55128;50.230;18.944;2024-02-26T15:26:47;97418.00;;;14.75;55.51
63535;BME280;55128;50.230;18.944;2024-02-26T15:31:48;97425.13;;;14.86;55.12
63535;BME280;55128;50.230;18.944;2024-02-26T15:36:48;97431.47;;;14.85;55.64
63535;BME280;55128;50.230;18.944;2024-02-26T15:41:49;97426.38;;;14.82;55.35
63535;BME280;55128;50.230;18.944;2024-02-26T15:46:49;97423.81;;;14.80;55.75
63535;BME280;55128;50.230;18.944;2024-02-26T15:51:49;97436.88;;;14.51;56.65
63535;BME280;55128;50.230;18.944;2024-02-26T15:56:50;97434.22;;;14.51;57.06
63535;BME280;55128;50.230;18.944;2024-02-26T16:01:51;97429.22;;;14.57;56.66
63535;BME280;55128;50.230;18.944;2024-02-26T16:06:58;97438.09;;;14.58;56.82
63535;BME280;55128;50.230;18.944;2024-02-26T16:12:03;97441.47;;;14.49;57.25
63535;BME280;55128;50.230;18.944;2024-02-26T16:17:28;97448.91;;;14.45;57.18
63535;BME280;55128;50.230;18.944;2024-02-26T16:22:34;97460.91;;;14.51;57.28
63535;BME280;55128;50.230;18.944;2024-02-26T16:27:36;97465.66;;;14.36;57.75
63535;BME280;55128;50.230;18.944;2024-02-26T16:32:37;97479.38;;;14.31;58.11
63535;BME280;55128;50.230;18.944;2024-02-26T16:37:38;97482.88;;;14.20;58.76
63535;BME280;55128;50.230;18.944;2024-02-26T16:42:39;97496.59;;;14.16;58.78
63535;BME280;55128;50.230;18.944;2024-02-26T16:47:40;97500.38;;;14.13;58.43
63535;BME280;55128;50.230;18.944;2024-02-26T16:52:41;97495.03;;;14.13;58.96
63535;BME280;55128;50.230;18.944;2024-02-26T16:57:42;97504.38;;;14.08;58.82
63535;BME280;55128;50.230;18.944;2024-02-26T17:02:43;97507.38;;;14.03;59.15
63535;BME280;55128;50.230;18.944;2024-02-26T17:07:45;97516.47;;;13.89;59.44
63535;BME280;55128;50.230;18.944;2024-02-26T17:12:46;97529.81;;;13.78;59.78
63535;BME280;55128;50.230;18.944;2024-02-26T17:17:46;97529.19;;;13.74;60.13
63535;BME280;55128;50.230;18.944;2024-02-26T17:22:47;97537.06;;;13.76;60.14
63535;BME280;55128;50.230;18.944;2024-02-26T17:27:47;97539.13;;;13.72;60.30
63535;BME280;55128;50.230;18.944;2024-02-26T17:32:48;97536.66;;;13.58;60.68
63535;BME280;55128;50.230;18.944;2024-02-26T17:37:50;97536.75;;;13.56;61.15
63535;BME280;55128;50.230;18.944;2024-02-26T17:42:51;97525.09;;;13.46;61.09
63535;BME280;55128;50.230;18.944;2024-02-26T17:47:51;97541.47;;;13.29;61.54
63535;BME280;55128;50.230;18.944;2024-02-26T17:52:52;97544.97;;;13.42;60.49
63535;BME280;55128;50.230;18.944;2024-02-26T17:57:53;97559.84;;;13.20;61.88
63535;BME280;55128;50.230;18.944;2024-02-26T18:02:53;97563.84;;;13.02;62.54
63535;BME280;55128;50.230;18.944;2024-02-26T18:07:54;97575.91;;;12.95;62.66
63535;BME280;55128;50.230;18.944;2024-02-26T18:12:54;97576.72;;;12.84;63.43
63535;BME280;55128;50.230;18.944;2024-02-26T18:17:58;97587.75;;;12.91;62.34
63535;BME280;55128;50.230;18.944;2024-02-26T18:22:59;97587.59;;;12.81;62.59
63535;BME280;55128;50.230;18.944;2024-02-26T18:28:00;97587.59;;;12.68;63.67
63535;BME280;55128;50.230;18.944;2024-02-26T18:33:00;97592.75;;;12.58;63.87
63535;BME280;55128;50.230;18.944;2024-02-26T18:38:00;97593.38;;;12.36;64.52
63535;BME280;55128;50.230;18.944;2024-02-26T18:43:02;97598.84;;;12.22;64.73
63535;BME280;55128;50.230;18.944;2024-02-26T18:48:04;97593.81;;;12.04;65.27
63535;BME280;55128;50.230;18.944;2024-02-26T18:53:07;97592.19;;;11.89;65.60
63535;BME280;55128;50.230;18.944;2024-02-26T18:58:07;97599.06;;;11.66;66.00
63535;BME280;55128;50.230;18.944;2024-02-26T19:03:08;97602.03;;;11.34;66.90
63535;BME280;55128;50.230;18.944;2024-02-26T19:08:09;97611.97;;;11.18;67.09
63535;BME280;55128;50.230;18.944;2024-02-26T19:13:11;97618.00;;;10.93;68.80
63535;BME280;55128;50.230;18.944;2024-02-26T19:18:11;97622.28;;;10.81;68.11
63535;BME280;55128;50.230;18.944;2024-02-26T19:23:12;97626.56;;;10.55;69.13
63535;BME280;55128;50.230;18.944;2024-02-26T19:28:13;97636.78;;;10.32;71.25
63535;BME280;55128;50.230;18.944;2024-02-26T19:33:15;97632.56;;;9.99;71.77
63535;BME280;55128;50.230;18.944;2024-02-26T19:38:17;97637.19;;;9.96;72.29
63535;BME280;55128;50.230;18.944;2024-02-26T19:43:17;97642.75;;;9.61;73.18
63535;BME280;55128;50.230;18.944;2024-02-26T19:48:17;97651.72;;;9.58;72.44
63535;BME280;55128;50.230;18.944;2024-02-26T19:53:18;97654.16;;;9.47;72.76
63535;BME280;55128;50.230;18.944;2024-02-26T19:58:18;97661.09;;;9.33;72.38
63535;BME280;55128;50.230;18.944;2024-02-26T20:03:19;97666.56;;;9.14;72.62
63535;BME280;55128;50.230;18.944;2024-02-26T20:08:19;97661.84;;;9.04;72.27
63535;BME280;55128;50.230;18.944;2024-02-26T20:13:20;97665.34;;;8.88;72.94
63535;BME280;55128;50.230;18.944;2024-02-26T20:18:25;97665.44;;;8.71;72.92
63535;BME280;55128;50.230;18.944;2024-02-26T20:23:26;97683.66;;;8.60;73.54
63535;BME280;55128;50.230;18.944;2024-02-26T20:28:26;97680.13;;;8.43;72.76
63535;BME280;55128;50.230;18.944;2024-02-26T20:33:27;97679.16;;;8.27;74.16
63535;BME280;55128;50.230;18.944;2024-02-26T20:38:27;97689.44;;;8.15;75.28
63535;BME280;55128;50.230;18.944;2024-02-26T20:43:28;97679.81;;;7.97;75.52
63535;BME280;55128;50.230;18.944;2024-02-26T20:48:28;97689.28;;;7.84;76.83
63535;BME280;55128;50.230;18.944;2024-02-26T20:53:29;97704.69;;;7.75;75.96
63535;BME280;55128;50.230;18.944;2024-02-26T20:58:29;97711.50;;;7.62;75.74
63535;BME280;55128;50.230;18.944;2024-02-26T21:03:30;97701.38;;;7.53;75.99
63535;BME280;55128;50.230;18.944;2024-02-26T21:08:31;97711.59;;;7.42;77.72
63535;BME280;55128;50.230;18.944;2024-02-26T21:13:31;97721.28;;;7.41;77.11
63535;BME280;55128;50.230;18.944;2024-02-26T21:18:32;97721.47;;;7.19;77.41
63535;BME280;55128;50.230;18.944;2024-02-26T21:23:35;97722.94;;;7.06;78.13
63535;BME280;55128;50.230;18.944;2024-02-26T21:28:36;97730.38;;;6.97;77.98
63535;BME280;55128;50.230;18.944;2024-02-26T21:33:37;97739.28;;;6.95;77.89
63535;BME280;55128;50.230;18.944;2024-02-26T21:38:37;97731.56;;;6.90;76.87
63535;BME280;55128;50.230;18.944;2024-02-26T21:43:38;97740.78;;;6.81;76.91
63535;BME280;55128;50.230;18.944;2024-02-26T21:48:38;97751.03;;;6.69;76.53
63535;BME280;55128;50.230;18.944;2024-02-26T21:53:39;97743.03;;;6.70;78.72
63535;BME280;55128;50.230;18.944;2024-02-26T21:58:39;97759.78;;;6.49;78.52
63535;BME280;55128;50.230;18.944;2024-02-26T22:03:40;97749.66;;;6.39;78.28
63535;BME280;55128;50.230;18.944;2024-02-26T22:08:40;97762.88;;;6.38;78.81
63535;BME280;55128;50.230;18.944;2024-02-26T22:13:41;97768.50;;;6.30;79.04
63535;BME280;55128;50.230;18.944;2024-02-26T22:18:41;97770.59;;;6.22;79.80
63535;BME280;55128;50.230;18.944;2024-02-26T22:23:43;97783.56;;;6.27;79.79
63535;BME280;55128;50.230;18.944;2024-02-26T22:28:43;97783.16;;;6.15;79.42
63535;BME280;55128;50.230;18.944;2024-02-26T22:33:44;97770.94;;;6.14;79.66
63535;BME280;55128;50.230;18.944;2024-02-26T22:38:44;97775.59;;;6.08;79.95
63535;BME280;55128;50.230;18.944;2024-02-26T22:43:44;97781.19;;;6.00;79.56
63535;BME280;55128;50.230;18.944;2024-02-26T22:48:45;97791.94;;;5.94;79.71
63535;BME280;55128;50.230;18.944;2024-02-26T22:53:45;97795.13;;;5.80;80.00
63535;BME280;55128;50.230;18.944;2024-02-26T22:58:46;97802.78;;;5.64;80.73
63535;BME280;55128;50.230;18.944;2024-02-26T23:03:46;97795.44;;;5.72;81.22
63535;BME280;55128;50.230;18.944;2024-02-26T23:08:47;97799.25;;;5.65;81.83
63535;BME280;55128;50.230;18.944;2024-02-26T23:13:47;97796.38;;;5.71;82.00
63535;BME280;55128;50.230;18.944;2024-02-26T23:18:48;97805.47;;;5.62;81.36
63535;BME280;55128;50.230;18.944;2024-02-26T23:23:48;97804.72;;;5.59;81.08
63535;BME280;55128;50.230;18.944;2024-02-26T23:28:48;97806.72;;;5.54;81.72
63535;BME280;55128;50.230;18.944;2024-02-26T23:33:49;97805.88;;;5.52;81.42
63535;BME280;55128;50.230;18.944;2024-02-26T23:38:50;97808.75;;;5.45;81.40
63535;BME280;55128;50.230;18.944;2024-02-26T23:43:54;97810.00;;;5.37;80.52
63535;BME280;55128;50.230;18.944;2024-02-26T23:48:54;97803.19;;;5.31;82.22
63535;BME280;55128;50.230;18.944;2024-02-26T23:53:55;97806.38;;;5.16;82.33
63535;BME280;55128;50.230;18.944;2024-02-26T23:58:55;97808.09;;;5.17;81.84
